Terminal Aerodrome Forecast
Issued by NWS

Current Version | Previous Version | Text Only | Print | Product List | Glossary Off
Versions: 1 2 3 4 5 6 7 8 9 10 11 12 13 14 15 16 17 18 19 20

000
FTUS41 KILN 261700
TAFLCK
TAF
KLCK 261720Z 2618/2718 20011G17KT P6SM SCT200
     FM262300 19005KT P6SM BKN200
     FM270400 18005KT P6SM BKN040
     FM271300 19010KT P6SM BKN060=

USA.gov is the U.S. government's official web portal to all federal, state and local government web resources and services.